Urb Sabanera del Rio, Puerto Rico
Current Conditions -  °F | °C
As of 7:56 PM on Tuesday 21 Oct 2014 (Local Time) from TJSJ Reporting Station
Scattered Clouds Scattered Clouds  
Wind Chill: 83°   Ceiling: Unl
Heat Index: 90°   Visibility: 10mi
Dew Point: 75°   Wind: 7mph
Humidity: 77%   Direction: 100°E
Pressure: 29.94"   Gusts: NA
Location:  18.2551°N, 65.9776°W
Report Text: TJSJ 212356Z 10006KT 10SM SCT022 28/24 A2994 RMK AO2 SLP137 T02830239 10306 20278 53015
Loading
Personal Weather Stations






























Interactive Weather Map
Tropical Storm Tracking
New forecast layout! Learn more

10-Day Weather Forecast

Advertisements
Track Severe Weather on mobile